Time;durP1;ratioP1;P1;durP2;ratioP2;P2;SDS_P1;SDS_P2;PMS_P1;PMS_P2;Temp;Humidity;BMP_temperature;BMP_pressure;BME280_temperature;BME280_humidity;BME280_pressure;Samples;Min_cycle;Max_cycle;Signal;HPM_P1;HPM_P2
2022/08/17 01:42:56;;;;;;;11.57;8.98;;;22.00;94.60;;;-147.18;100.00;67318.16;2212004;23;20071;-83
2022/08/17 01:45:27;;;;;;;13.23;8.77;;;22.00;94.80;;;-147.18;100.00;67318.16;4931250;29;20048;-83
2022/08/17 01:47:56;;;;;;;14.07;9.27;;;21.90;95.00;;;-147.18;100.00;67318.16;4926788;29;20331;-83
2022/08/17 01:50:27;;;;;;;13.20;8.55;;;21.90;95.10;;;-147.18;100.00;67318.16;4930521;29;20114;-83
2022/08/17 01:52:58;;;;;;;16.88;9.35;;;21.90;95.20;;;-147.18;100.00;67318.16;4924445;29;20047;-81
2022/08/17 01:55:33;;;;;;;15.57;9.00;;;21.90;95.10;;;-147.18;100.00;67318.16;4932096;29;20051;-81
2022/08/17 01:58:02;;;;;;;11.25;9.07;;;21.80;95.10;;;-147.18;100.00;67318.16;4932841;29;20058;-81
2022/08/17 02:00:29;;;;;;;11.02;9.05;;;21.80;95.20;;;-147.18;100.00;67318.16;4932027;29;20126;-81
2022/08/17 02:02:56;;;;;;;13.35;9.30;;;21.80;95.20;;;-147.18;100.00;67318.16;4932141;29;20051;-81
2022/08/17 02:05:24;;;;;;;11.10;8.77;;;21.80;95.30;;;-147.18;100.00;67318.16;4925931;29;20098;-81
2022/08/17 02:07:51;;;;;;;13.68;8.65;;;21.80;95.40;;;-147.18;100.00;67318.16;4932119;29;20061;-81
2022/08/17 02:10:19;;;;;;;13.73;9.50;;;21.70;95.50;;;-147.18;100.00;67318.16;4932290;29;20162;-83
2022/08/17 02:12:47;;;;;;;13.18;8.98;;;21.70;95.60;;;-147.18;100.00;67318.16;4931433;29;20066;-83
2022/08/17 02:15:16;;;;;;;14.27;9.85;;;21.70;95.70;;;-147.18;100.00;67318.16;4932001;29;20044;-83
2022/08/17 02:17:43;;;;;;;12.95;9.07;;;21.70;95.80;;;-147.18;100.00;67318.16;4933345;29;20042;-83
2022/08/17 02:20:11;;;;;;;12.65;9.63;;;21.70;96.00;;;-147.18;100.00;67318.16;4935954;29;20035;-83
2022/08/17 02:22:43;;;;;;;14.52;10.05;;;21.60;95.90;;;-147.18;100.00;67318.16;4930833;29;20561;-83
2022/08/17 02:25:16;;;;;;;14.75;9.75;;;21.60;96.10;;;-147.18;100.00;67318.16;4927032;29;20510;-83
2022/08/17 02:27:43;;;;;;;12.30;9.65;;;21.60;96.10;;;-147.18;100.00;67318.16;4935512;29;20043;-83
2022/08/17 02:30:16;;;;;;;13.68;9.48;;;21.60;96.30;;;-147.18;100.00;67318.16;4934863;29;20039;-83
2022/08/17 02:32:44;;;;;;;13.82;9.20;;;21.60;96.40;;;-147.18;100.00;67318.16;4935072;29;20049;-83
2022/08/17 02:35:12;;;;;;;13.43;9.82;;;21.50;96.50;;;-147.18;100.00;67318.16;4934112;29;20067;-83
2022/08/17 02:37:41;;;;;;;12.10;10.15;;;21.50;96.40;;;-147.18;100.00;67318.16;4935383;29;20052;-83
2022/08/17 02:40:10;;;;;;;13.48;9.65;;;21.50;96.70;;;-147.18;100.00;67318.16;4935586;29;20047;-83
2022/08/17 02:42:42;;;;;;;14.30;10.45;;;21.50;96.70;;;-147.18;100.00;67318.16;4935222;29;20130;-82
2022/08/17 02:45:13;;;;;;;13.48;9.80;;;21.50;96.70;;;-147.18;100.00;67318.16;4934561;29;20040;-81
2022/08/17 02:47:43;;;;;;;12.15;9.73;;;21.50;96.70;;;-147.18;100.00;67318.16;4935288;29;20042;-82
2022/08/17 02:50:14;;;;;;;13.02;10.00;;;21.50;96.80;;;-147.18;100.00;67318.16;4935593;29;20036;-81
2022/08/17 02:52:44;;;;;;;12.82;10.15;;;21.50;96.80;;;-147.18;100.00;67318.16;4934917;29;20050;-81
2022/08/17 02:55:16;;;;;;;15.27;9.50;;;21.50;96.90;;;-147.18;100.00;67318.16;4935599;29;20040;-82
2022/08/17 02:57:45;;;;;;;12.57;10.35;;;21.40;96.80;;;-147.18;100.00;67318.16;4933286;29;20044;-81
2022/08/17 03:00:18;;;;;;;14.40;10.23;;;21.40;96.80;;;-147.18;100.00;67318.16;4935447;29;20118;-82
2022/08/17 03:02:56;;;;;;;16.75;10.75;;;21.40;97.00;;;-147.18;100.00;67318.16;4934784;29;20076;-82
2022/08/17 03:05:28;;;;;;;12.35;9.77;;;21.40;97.00;;;-147.18;100.00;67318.16;4934386;29;20044;-82
2022/08/17 03:07:56;;;;;;;14.77;10.65;;;21.40;97.10;;;-147.18;100.00;67318.16;4915387;29;20438;-82
2022/08/17 03:10:29;;;;;;;12.82;10.18;;;21.40;97.10;;;-147.18;100.00;67318.16;4935215;29;20073;-82
2022/08/17 03:12:58;;;;;;;16.77;10.68;;;21.40;97.10;;;-147.18;100.00;67318.16;4933528;29;20221;-82
2022/08/17 03:15:30;;;;;;;12.85;9.82;;;21.40;97.20;;;-147.18;100.00;67318.16;4935010;29;20051;-82
2022/08/17 03:18:04;;;;;;;16.33;10.82;;;21.30;97.40;;;-147.18;100.00;67318.16;4934498;29;20052;-82
2022/08/17 03:20:36;;;;;;;19.13;11.05;;;21.40;97.50;;;-147.18;100.00;67318.16;4934487;29;20032;-82
2022/08/17 03:23:13;;;;;;;16.65;11.13;;;21.30;97.40;;;-147.18;100.00;67318.16;4934427;29;20040;-82
2022/08/17 03:26:01;;;;;;;17.48;10.40;;;21.30;97.70;;;-147.18;100.00;67318.16;4924632;29;20122;-82
2022/08/17 03:29:17;;;;;;;13.00;9.68;;;21.30;97.80;;;-147.18;100.00;67318.16;4934793;29;20067;-82
2022/08/17 03:31:56;;;;;;;12.55;10.38;;;21.30;97.80;;;-147.18;100.00;67318.16;4933106;29;20316;-82
2022/08/17 03:34:35;;;;;;;14.30;10.20;;;21.30;97.80;;;-147.18;100.00;67318.16;4933356;29;20063;-82
2022/08/17 03:37:24;;;;;;;14.45;10.57;;;21.30;97.90;;;-147.18;100.00;67318.16;4934300;29;20036;-82
2022/08/17 03:39:57;;;;;;;15.18;11.18;;;21.30;97.80;;;-147.18;100.00;67318.16;4932654;29;20064;-82
2022/08/17 03:42:56;;;;;;;14.18;10.70;;;21.30;97.90;;;-147.18;100.00;67318.16;4916673;29;20522;-82
2022/08/17 03:57:20;;;;;;;13.80;10.15;;;21.20;98.60;;;-147.18;100.00;67318.16;4934197;29;20138;-82
2022/08/17 04:00:01;;;;;;;14.98;10.70;;;21.20;98.80;;;-147.18;100.00;67318.16;4934342;29;20082;-82
2022/08/17 04:02:52;;;;;;;19.13;11.57;;;21.20;98.70;;;-147.18;100.00;67318.16;4932147;29;20048;-83
2022/08/17 04:05:24;;;;;;;13.20;10.53;;;21.20;98.70;;;-147.18;100.00;67318.16;4933620;29;20070;-82
2022/08/17 04:07:56;;;;;;;13.90;10.63;;;21.10;98.70;;;-147.18;100.00;67318.16;4935279;29;20471;-81
2022/08/17 04:10:29;;;;;;;14.27;11.55;;;21.10;98.80;;;-147.18;100.00;67318.16;4935061;29;20554;-81
2022/08/17 04:13:00;;;;;;;17.73;10.93;;;21.10;98.80;;;-147.18;100.00;67318.16;4930989;29;20048;-84
2022/08/17 04:15:32;;;;;;;18.02;11.32;;;21.10;99.00;;;-147.18;100.00;67318.16;4938375;29;20115;-85
2022/08/17 04:18:01;;;;;;;16.70;11.18;;;21.10;98.90;;;-147.18;100.00;67318.16;4932618;29;20071;-84
2022/08/17 04:20:33;;;;;;;19.27;11.50;;;21.10;98.90;;;-147.18;100.00;67318.16;4931873;29;20038;-84
2022/08/17 04:23:11;;;;;;;16.20;11.73;;;21.10;98.90;;;-147.18;100.00;67318.16;4941279;28;20079;-83
2022/08/17 04:25:49;;;;;;;12.73;10.35;;;21.00;99.00;;;-147.18;100.00;67318.16;4937395;29;20043;-84
2022/08/17 04:28:24;;;;;;;19.10;11.20;;;21.00;99.20;;;-147.18;100.00;67318.16;4918350;29;20126;-84
2022/08/17 04:31:17;;;;;;;15.43;11.27;;;21.00;99.30;;;-147.18;100.00;67318.16;4930857;29;20120;-85
2022/08/17 04:34:13;;;;;;;17.25;11.23;;;21.00;99.20;;;-147.18;100.00;67318.16;4930557;29;20503;-84
2022/08/17 04:36:55;;;;;;;15.63;11.43;;;21.00;99.30;;;-147.18;100.00;67318.16;4921164;29;20070;-83
2022/08/17 04:39:30;;;;;;;15.35;11.15;;;21.00;99.30;;;-147.18;100.00;67318.16;4932178;29;20059;-83
2022/08/17 04:42:16;;;;;;;22.10;11.50;;;21.00;99.50;;;-147.18;100.00;67318.16;4932990;29;20525;-84
2022/08/17 04:45:43;;;;;;;16.17;11.18;;;21.00;99.60;;;-147.18;100.00;67318.16;4929217;29;20293;-85
2022/08/17 04:49:07;;;;;;;13.82;10.90;;;21.00;99.60;;;-147.18;100.00;67318.16;4938337;29;20054;-85
2022/08/17 04:52:44;;;;;;;15.95;11.25;;;21.00;99.70;;;-147.18;100.00;67318.16;4931750;29;20056;-84
2022/08/17 04:56:05;;;;;;;16.38;10.55;;;21.00;99.90;;;-147.18;100.00;67318.16;4931361;29;20082;-84
2022/08/17 04:59:30;;;;;;;13.70;10.65;;;21.00;99.90;;;-147.18;100.00;67318.16;4932850;29;20095;-85
2022/08/17 05:02:50;;;;;;;15.18;10.88;;;21.00;99.90;;;-147.18;100.00;67318.16;4929203;29;20147;-85
2022/08/17 05:05:54;;;;;;;13.70;11.03;;;21.00;99.90;;;-147.18;100.00;67318.16;4925505;29;20038;-83
2022/08/17 05:08:38;;;;;;;13.18;10.90;;;21.00;99.90;;;-147.18;100.00;67318.16;4931600;29;20115;-87
2022/08/17 05:11:53;;;;;;;14.80;10.90;;;21.00;99.90;;;-147.18;100.00;67318.16;4932261;29;20098;-83
2022/08/17 05:15:01;;;;;;;14.30;10.38;;;21.00;99.90;;;-147.18;100.00;67318.16;4931618;29;20078;-85
2022/08/17 05:18:15;;;;;;;13.70;9.77;;;21.00;99.90;;;-147.18;100.00;67318.16;4927806;29;20123;-83
2022/08/17 05:21:09;;;;;;;17.05;10.10;;;21.00;99.90;;;-147.18;100.00;67318.16;4931693;29;20118;-82
2022/08/17 05:23:38;;;;;;;11.77;10.00;;;21.10;99.90;;;-147.18;100.00;67318.16;4930794;29;20057;-83
2022/08/17 05:26:08;;;;;;;13.95;10.20;;;21.10;99.90;;;-147.18;100.00;67318.16;4924594;29;20114;-83
2022/08/17 05:28:36;;;;;;;12.55;10.52;;;21.10;99.90;;;-147.18;100.00;67318.16;4933067;29;20044;-83
2022/08/17 05:31:03;;;;;;;14.88;10.00;;;21.20;99.90;;;-147.18;100.00;67318.16;4932917;29;20038;-82
2022/08/17 05:33:35;;;;;;;13.02;10.10;;;21.20;99.90;;;-147.18;100.00;67318.16;4932848;29;20032;-83
2022/08/17 05:36:06;;;;;;;14.35;10.52;;;21.20;99.90;;;-147.18;100.00;67318.16;4932952;29;20119;-83
2022/08/17 05:38:35;;;;;;;12.40;10.05;;;21.20;99.90;;;-147.18;100.00;67318.16;4933122;29;20036;-83
2022/08/17 05:41:08;;;;;;;14.43;10.27;;;21.30;99.90;;;-147.18;100.00;67318.16;4933129;29;20043;-83
2022/08/17 05:43:39;;;;;;;13.60;9.95;;;21.30;99.90;;;-147.18;100.00;67318.16;4932913;29;20139;-83
2022/08/17 05:46:16;;;;;;;13.25;9.95;;;21.40;99.90;;;-147.18;100.00;67318.16;4932823;29;20043;-83
2022/08/17 05:48:48;;;;;;;16.80;10.68;;;21.40;99.90;;;-147.18;100.00;67318.16;4935591;29;20044;-83
2022/08/17 05:52:08;;;;;;;16.35;9.63;;;21.40;99.90;;;-147.18;100.00;67318.16;4933257;29;20048;-83
2022/08/17 05:54:51;;;;;;;17.90;10.45;;;21.50;99.90;;;-147.18;100.00;67318.16;4907498;29;20138;-83
2022/08/17 05:57:48;;;;;;;13.30;9.15;;;21.60;99.90;;;-147.18;100.00;67318.16;4936442;29;20124;-82
2022/08/17 06:00:24;;;;;;;15.25;9.73;;;21.60;99.90;;;-147.18;100.00;67318.16;4936419;29;20114;-83
2022/08/17 06:03:23;;;;;;;13.15;10.25;;;21.70;99.90;;;-147.18;100.00;67318.16;4936547;29;20126;-83
2022/08/17 06:06:14;;;;;;;16.08;9.88;;;21.70;99.90;;;-147.18;100.00;67318.16;4915529;29;20059;-83
2022/08/17 06:08:56;;;;;;;15.57;10.40;;;21.80;99.90;;;-147.18;100.00;67318.16;4926130;29;20044;-82
2022/08/17 06:11:45;;;;;;;14.20;9.43;;;21.90;99.90;;;-147.18;100.00;67318.16;4935155;29;20044;-83
2022/08/17 06:14:57;;;;;;;17.75;10.43;;;22.00;99.70;;;-147.18;100.00;67318.16;4936296;29;20052;-83
2022/08/17 06:17:38;;;;;;;18.10;9.32;;;22.00;98.90;;;-147.18;100.00;67318.16;4936162;29;20048;-83
2022/08/17 06:20:17;;;;;;;16.55;10.65;;;22.10;98.50;;;-147.18;100.00;67318.16;4936154;29;20143;-83
2022/08/17 06:23:08;;;;;;;18.50;9.98;;;22.20;99.30;;;-147.18;100.00;67318.16;4936246;29;20070;-83
2022/08/17 06:26:14;;;;;;;15.20;9.23;;;22.20;98.40;;;-147.18;100.00;67318.16;4935927;29;20070;-83
2022/08/17 06:29:50;;;;;;;17.38;9.40;;;22.30;98.10;;;-147.18;100.00;67318.16;4935966;29;20510;-83
2022/08/17 06:33:09;;;;;;;20.58;9.05;;;22.40;98.30;;;-147.18;100.00;67318.16;4925465;29;20059;-83
2022/08/17 06:36:47;;;;;;;16.92;8.57;;;22.40;98.20;;;-147.18;100.00;67318.16;4935503;29;20118;-83
2022/08/17 06:40:34;;;;;;;22.35;9.05;;;22.50;97.40;;;-147.18;100.00;67318.16;4935858;29;20051;-83
2022/08/17 06:44:13;;;;;;;19.42;8.82;;;22.50;96.60;;;-147.18;100.00;67318.16;4935765;29;20051;-83
2022/08/17 06:47:24;;;;;;;16.50;8.27;;;22.60;96.60;;;-147.18;100.00;67318.16;4935762;29;20039;-83
2022/08/17 06:50:47;;;;;;;16.55;9.20;;;22.60;96.60;;;-147.18;100.00;67318.16;4935570;29;20569;-83
2022/08/17 06:54:04;;;;;;;14.63;8.57;;;22.70;96.50;;;-147.18;100.00;67318.16;4935757;29;20040;-83
2022/08/17 06:56:44;;;;;;;15.93;8.60;;;22.70;96.10;;;-147.18;100.00;67318.16;4935580;29;20050;-83
2022/08/17 06:59:36;;;;;;;18.23;8.33;;;22.80;97.90;;;-147.18;100.00;67318.16;4934772;29;20115;-83
2022/08/17 07:02:18;;;;;;;16.27;7.57;;;22.80;98.00;;;-147.18;100.00;67318.16;4935330;29;20275;-83
2022/08/17 07:05:00;;;;;;;16.08;7.30;;;22.80;99.00;;;-147.18;100.00;67318.16;4935211;29;20118;-83
2022/08/17 07:08:19;;;;;;;13.70;6.82;;;22.80;99.00;;;-147.18;100.00;67318.16;4930431;29;20043;-83
2022/08/17 07:11:00;;;;;;;10.60;5.40;;;22.90;98.50;;;-147.18;100.00;67318.16;4935557;29;20438;-83
2022/08/17 07:13:48;;;;;;;46.33;6.53;;;22.90;96.70;;;-147.18;100.00;67318.16;4935272;29;20078;-83
2022/08/17 07:17:19;;;;;;;34.13;6.80;;;22.90;94.80;;;-147.18;100.00;67318.16;4935099;29;20051;-83
2022/08/17 07:20:42;;;;;;;25.65;5.25;;;23.00;93.50;;;-147.18;100.00;67318.16;4935216;29;20048;-83
2022/08/17 07:23:47;;;;;;;17.63;5.32;;;23.00;93.60;;;-147.18;100.00;67318.16;4926974;29;20051;-83
2022/08/17 07:27:03;;;;;;;16.58;5.70;;;23.00;94.60;;;-147.18;100.00;67318.16;4921076;29;20087;-83
2022/08/17 07:30:30;;;;;;;14.07;4.78;;;23.00;93.80;;;-147.18;100.00;67318.16;4935105;29;20136;-83
2022/08/17 07:34:02;;;;;;;15.18;5.32;;;23.10;93.80;;;-147.18;100.00;67318.16;4934618;29;20512;-83
2022/08/17 07:37:26;;;;;;;;;;;23.10;93.60;;;-147.18;100.00;67318.16;4934948;29;20067;-83
2022/08/17 07:41:01;;;;;;;82.65;13.93;;;23.10;93.40;;;-147.18;100.00;67318.16;4934829;29;19989;-83
2022/08/17 07:44:27;;;;;;;23.92;6.18;;;23.20;92.30;;;-147.18;100.00;67318.16;4937975;23;20054;-88
2022/08/17 07:51:38;;;;;;;10.55;5.57;;;23.30;93.30;;;-147.18;100.00;67318.16;4915115;29;20103;-88
2022/08/17 07:55:24;;;;;;;28.60;7.32;;;23.40;93.20;;;-147.18;100.00;67318.16;4912642;29;20486;-89
2022/08/17 07:59:05;;;;;;;20.17;6.57;;;23.40;92.70;;;-147.18;100.00;67318.16;4911901;29;20575;-89
2022/08/17 08:02:33;;;;;;;10.90;6.47;;;23.50;91.90;;;-147.18;100.00;67318.16;4895511;29;20109;-89
2022/08/17 08:06:03;;;;;;;12.95;6.82;;;23.50;92.10;;;-147.18;100.00;67318.16;4905287;29;20080;-89
2022/08/17 08:09:40;;;;;;;10.50;6.90;;;23.60;92.40;;;-147.18;100.00;67318.16;4909429;29;20131;-88
2022/08/17 08:13:04;;;;;;;12.75;6.95;;;23.60;93.20;;;-147.18;100.00;67318.16;4897889;29;20079;-89
2022/08/17 08:16:31;;;;;;;15.65;7.55;;;23.70;93.70;;;-147.18;100.00;67318.16;4895842;29;20048;-89
2022/08/17 08:19:58;;;;;;;12.68;7.70;;;23.70;92.10;;;-147.18;100.00;67318.16;4896166;29;20548;-88
2022/08/17 08:23:38;;;;;;;12.02;7.97;;;23.80;93.40;;;-147.18;100.00;67318.16;4896338;29;20492;-88
2022/08/17 08:27:18;;;;;;;16.67;8.20;;;23.80;93.00;;;-147.18;100.00;67318.16;4895583;29;20052;-88
2022/08/17 08:30:57;;;;;;;14.38;8.32;;;23.90;93.40;;;-147.18;100.00;67318.16;4879099;29;20539;-88
2022/08/17 08:34:31;;;;;;;12.20;8.40;;;23.90;94.20;;;-147.18;100.00;67318.16;4898161;29;20052;-88
2022/08/17 08:37:25;;;;;;;20.65;9.02;;;23.90;94.40;;;-147.18;100.00;67318.16;4891235;29;20471;-88
2022/08/17 08:40:07;;;;;;;17.85;8.90;;;24.00;92.90;;;-147.18;100.00;67318.16;4899053;29;20110;-88
2022/08/17 08:42:49;;;;;;;14.75;8.45;;;24.00;94.00;;;-147.18;100.00;67318.16;4904730;29;20044;-88
2022/08/17 08:45:24;;;;;;;14.75;8.98;;;24.00;93.40;;;-147.18;100.00;67318.16;4910036;29;20156;-88
2022/08/17 08:48:10;;;;;;;32.22;11.23;;;24.00;93.50;;;-147.18;100.00;67318.16;4897924;29;20036;-88
2022/08/17 08:50:48;;;;;;;19.23;8.30;;;24.10;93.50;;;-147.18;100.00;67318.16;4904136;29;20048;-88
2022/08/17 08:53:35;;;;;;;18.42;8.85;;;24.10;92.90;;;-147.18;100.00;67318.16;4878522;29;20076;-87
2022/08/17 08:56:11;;;;;;;13.90;8.80;;;24.10;93.90;;;-147.18;100.00;67318.16;4895222;29;20041;-88
2022/08/17 08:58:49;;;;;;;11.90;8.90;;;24.10;93.30;;;-147.18;100.00;67318.16;4895667;29;20144;-88
2022/08/17 09:01:23;;;;;;;11.32;7.28;;;24.10;92.10;;;-147.18;100.00;67318.16;4895432;29;20041;-88
2022/08/17 09:04:21;;;;;;;12.77;8.80;;;24.20;93.40;;;-147.18;100.00;67318.16;4895307;29;20054;-88
2022/08/17 09:07:04;;;;;;;15.98;9.73;;;24.20;93.30;;;-147.18;100.00;67318.16;4890909;29;20116;-88
2022/08/17 09:09:45;;;;;;;14.63;9.32;;;24.20;92.70;;;-147.18;100.00;67318.16;4895796;29;20044;-88
2022/08/17 09:12:25;;;;;;;14.57;9.55;;;24.20;92.70;;;-147.18;100.00;67318.16;4898210;29;20120;-88
2022/08/17 09:15:01;;;;;;;18.13;9.40;;;24.20;93.90;;;-147.18;100.00;67318.16;4885000;29;20067;-88
2022/08/17 09:17:38;;;;;;;14.32;8.55;;;24.20;94.00;;;-147.18;100.00;67318.16;4903945;29;20041;-88
2022/08/17 09:20:15;;;;;;;15.73;9.18;;;24.20;93.80;;;-147.18;100.00;67318.16;4909721;29;20075;-88
2022/08/17 09:22:51;;;;;;;19.55;9.50;;;24.20;93.50;;;-147.18;100.00;67318.16;4882291;29;20092;-89
2022/08/17 09:25:25;;;;;;;298.83;38.90;;;24.20;93.30;;;-147.18;100.00;67318.16;4898223;29;20127;-87
2022/08/17 09:27:58;;;;;;;118.38;22.40;;;24.20;93.30;;;-147.18;100.00;67318.16;4902062;29;20380;-88
2022/08/17 09:30:28;;;;;;;48.35;13.52;;;24.20;94.30;;;-147.18;100.00;67318.16;4881144;29;20058;-88
2022/08/17 09:33:02;;;;;;;24.23;11.35;;;24.20;93.80;;;-147.18;100.00;67318.16;4907903;29;20044;-88
2022/08/17 09:35:34;;;;;;;17.70;10.55;;;24.20;93.80;;;-147.18;100.00;67318.16;4904429;29;20048;-88
2022/08/17 09:38:09;;;;;;;18.25;10.30;;;24.20;93.40;;;-147.18;100.00;67318.16;4899397;29;20053;-88
2022/08/17 09:40:48;;;;;;;290.20;35.05;;;24.20;94.30;;;-147.18;100.00;67318.16;4910309;29;20120;-88
2022/08/17 09:43:31;;;;;;;129.13;21.27;;;24.20;94.70;;;-147.18;100.00;67318.16;4902598;29;20499;-89
2022/08/17 09:46:03;;;;;;;33.40;13.23;;;24.10;94.80;;;-147.18;100.00;67318.16;4899493;29;20052;-88
2022/08/17 09:48:37;;;;;;;21.00;11.50;;;24.10;93.90;;;-147.18;100.00;67318.16;4910137;29;20127;-88
2022/08/17 09:51:10;;;;;;;16.67;10.73;;;24.10;93.50;;;-147.18;100.00;67318.16;4901544;29;20123;-89
2022/08/17 09:53:39;;;;;;;15.65;10.73;;;24.10;95.40;;;-147.18;100.00;67318.16;4902233;29;20108;-88
2022/08/17 09:56:30;;;;;;;17.15;11.40;;;24.10;94.30;;;-147.18;100.00;67318.16;4892247;29;20410;-88
2022/08/17 09:59:31;;;;;;;131.55;21.10;;;24.10;94.60;;;-147.18;100.00;67318.16;4887597;29;20036;-88
2022/08/17 10:02:24;;;;;;;21.92;10.82;;;24.10;94.30;;;-147.18;100.00;67318.16;4883018;29;20143;-88
2022/08/17 10:05:02;;;;;;;18.35;10.55;;;24.10;93.40;;;-147.18;100.00;67318.16;4903471;29;20048;-88
2022/08/17 10:07:37;;;;;;;18.25;11.27;;;24.10;94.00;;;-147.18;100.00;67318.16;4903516;29;20500;-88
2022/08/17 10:10:12;;;;;;;16.52;10.70;;;24.10;94.30;;;-147.18;100.00;67318.16;4894514;29;20496;-88
2022/08/17 10:12:50;;;;;;;16.00;10.57;;;24.10;94.00;;;-147.18;100.00;67318.16;4894473;29;20480;-88
2022/08/17 10:15:35;;;;;;;14.68;10.15;;;24.10;94.30;;;-147.18;100.00;67318.16;4894279;29;20037;-88
2022/08/17 10:18:29;;;;;;;16.45;10.75;;;24.10;94.60;;;-147.18;100.00;67318.16;4877689;29;20112;-88
2022/08/17 10:26:47;;;;;;;20.05;12.13;;;24.10;94.90;;;-147.18;100.00;67318.16;4896333;29;20294;-88
2022/08/17 10:29:20;;;;;;;16.17;11.82;;;24.10;94.30;;;-147.18;100.00;67318.16;4896711;29;20049;-87
2022/08/17 10:31:54;;;;;;;14.35;11.70;;;24.00;93.80;;;-147.18;100.00;67318.16;4898751;29;20135;-88
2022/08/17 10:35:03;;;;;;;15.57;12.02;;;24.00;93.60;;;-147.18;100.00;67318.16;4894306;29;20072;-88
2022/08/17 10:38:14;;;;;;;15.93;11.65;;;24.00;93.80;;;-147.18;100.00;67318.16;4897869;29;20050;-88
2022/08/17 10:40:51;;;;;;;14.70;9.75;;;24.00;94.00;;;-147.18;100.00;67318.16;4880502;29;20101;-88
2022/08/17 10:43:43;;;;;;;16.10;11.65;;;24.00;93.90;;;-147.18;100.00;67318.16;4897633;29;20048;-88
2022/08/17 10:46:18;;;;;;;18.33;12.85;;;24.00;93.90;;;-147.18;100.00;67318.16;4897499;29;20127;-88
2022/08/17 10:49:29;;;;;;;14.98;12.48;;;23.90;94.40;;;-147.18;100.00;67318.16;4893332;29;20112;-88
2022/08/17 10:51:59;;;;;;;22.13;13.13;;;23.90;95.10;;;-147.18;100.00;67318.16;4907616;29;20494;-88
2022/08/17 10:54:57;;;;;;;19.65;12.88;;;23.90;94.70;;;-147.18;100.00;67318.16;4899215;29;20041;-88
2022/08/17 10:57:42;;;;;;;21.25;13.68;;;23.90;95.30;;;-147.18;100.00;67318.16;4905988;29;20080;-88
2022/08/17 11:00:15;;;;;;;18.70;13.70;;;23.90;94.70;;;-147.18;100.00;67318.16;4899097;29;20104;-88
2022/08/17 11:02:51;;;;;;;26.67;16.08;;;23.90;94.40;;;-147.18;100.00;67318.16;4885722;29;20480;-88
2022/08/17 11:05:52;;;;;;;28.92;16.67;;;23.90;94.20;;;-147.18;100.00;67318.16;4907577;29;20041;-88
2022/08/17 11:09:10;;;;;;;21.77;15.07;;;23.80;94.10;;;-147.18;100.00;67318.16;4886270;29;20108;-88
2022/08/17 11:12:05;;;;;;;30.02;16.83;;;23.80;94.20;;;-147.18;100.00;67318.16;4905233;29;20044;-88
2022/08/17 11:14:52;;;;;;;28.17;16.30;;;23.80;94.10;;;-147.18;100.00;67318.16;4912213;29;20130;-88
2022/08/17 11:17:46;;;;;;;25.55;16.65;;;23.80;94.30;;;-147.18;100.00;67318.16;4905587;29;20130;-89
2022/08/17 11:21:11;;;;;;;22.08;15.30;;;23.80;94.40;;;-147.18;100.00;67318.16;4883434;29;20044;-88
2022/08/17 11:24:20;;;;;;;52.75;19.27;;;23.80;94.70;;;-147.18;100.00;67318.16;4882877;29;20142;-88
2022/08/17 11:27:12;;;;;;;23.98;15.85;;;23.80;94.60;;;-147.18;100.00;67318.16;4886713;29;20044;-88
2022/08/17 11:29:51;;;;;;;23.85;15.18;;;23.70;95.00;;;-147.18;100.00;67318.16;4887511;29;20056;-88
2022/08/17 11:32:38;;;;;;;22.58;16.02;;;23.70;95.30;;;-147.18;100.00;67318.16;4895381;29;20507;-88
2022/08/17 11:35:38;;;;;;;22.10;15.88;;;23.70;95.40;;;-147.18;100.00;67318.16;4896469;29;20507;-88
2022/08/17 11:38:24;;;;;;;21.73;16.95;;;23.80;96.00;;;-147.18;100.00;67318.16;4896926;29;20747;-88
2022/08/17 11:41:18;;;;;;;23.23;15.70;;;23.70;96.00;;;-147.18;100.00;67318.16;4896956;29;20049;-87
2022/08/17 11:44:10;;;;;;;22.67;15.73;;;23.70;96.10;;;-147.18;100.00;67318.16;4896656;29;20060;-88
2022/08/17 11:54:30;;;;;;;25.20;18.20;;;23.70;96.70;;;-147.18;100.00;67318.16;4849248;29;20048;-88
2022/08/17 11:57:21;;;;;;;26.33;20.52;;;23.80;96.70;;;-147.18;100.00;67318.16;4896779;29;20080;-88
2022/08/17 12:00:08;;;;;;;26.77;20.23;;;23.80;97.30;;;-147.18;100.00;67318.16;4889455;29;20048;-88
2022/08/17 12:02:47;;;;;;;28.05;21.35;;;23.80;97.70;;;-147.18;100.00;67318.16;4885507;29;20049;-88
2022/08/17 12:05:35;;;;;;;27.88;22.67;;;23.90;97.20;;;-147.18;100.00;67318.16;4911609;29;20414;-88
2022/08/17 12:08:20;;;;;;;29.55;23.83;;;23.90;97.70;;;-147.18;100.00;67318.16;4891831;29;20499;-88
2022/08/17 12:11:06;;;;;;;32.88;24.65;;;24.00;97.70;;;-147.18;100.00;67318.16;4905244;29;20044;-88
2022/08/17 12:13:43;;;;;;;28.80;22.50;;;24.00;97.70;;;-147.18;100.00;67318.16;4886028;29;20083;-88
2022/08/17 12:16:16;;;;;;;32.53;26.98;;;24.10;98.40;;;-147.18;100.00;67318.16;4905443;29;20047;-88
2022/08/17 12:18:52;;;;;;;37.90;27.77;;;24.10;97.60;;;-147.18;100.00;67318.16;4892670;29;20516;-87
2022/08/17 12:21:41;;;;;;;33.47;25.77;;;24.10;97.20;;;-147.18;100.00;67318.16;4899187;29;20092;-88
2022/08/17 12:24:23;;;;;;;33.38;27.25;;;24.20;97.20;;;-147.18;100.00;67318.16;4905582;29;20061;-88
2022/08/17 12:26:58;;;;;;;36.33;30.50;;;24.20;96.90;;;-147.18;100.00;67318.16;4905539;29;20037;-88
2022/08/17 12:29:28;;;;;;;37.63;27.95;;;24.30;96.70;;;-147.18;100.00;67318.16;4879452;29;20496;-87
2022/08/17 12:32:00;;;;;;;33.30;27.15;;;24.30;97.20;;;-147.18;100.00;67318.16;4878833;29;20049;-88
2022/08/17 12:34:41;;;;;;;36.88;30.08;;;24.40;97.10;;;-147.18;100.00;67318.16;4894612;29;20127;-88
2022/08/17 12:37:19;;;;;;;37.10;28.98;;;24.40;96.70;;;-147.18;100.00;67318.16;4895789;29;20099;-88
2022/08/17 12:39:56;;;;;;;40.13;29.02;;;24.50;96.70;;;-147.18;100.00;67318.16;4895702;29;20131;-88
2022/08/17 12:42:36;;;;;;;40.60;30.80;;;24.40;97.30;;;-147.18;100.00;67318.16;4894140;29;20408;-88
2022/08/17 12:45:22;;;;;;;33.53;29.88;;;24.50;95.80;;;-147.18;100.00;67318.16;4896866;29;20408;-88
2022/08/17 12:48:02;;;;;;;41.17;29.42;;;24.50;96.70;;;-147.18;100.00;67318.16;4914616;29;20032;-88
2022/08/17 12:50:40;;;;;;;36.15;29.77;;;24.50;97.00;;;-147.18;100.00;67318.16;4914377;29;20306;-85
2022/08/17 12:53:16;;;;;;;40.28;32.78;;;24.50;96.50;;;-147.18;100.00;67318.16;4897527;29;20127;-84
2022/08/17 12:55:44;;;;;;;41.47;30.55;;;24.50;96.50;;;-147.18;100.00;67318.16;4894971;29;20037;-84
2022/08/17 12:58:20;;;;;;;37.90;32.72;;;24.60;97.20;;;-147.18;100.00;67318.16;4894255;29;20071;-85
2022/08/17 13:00:55;;;;;;;34.92;29.58;;;24.60;96.30;;;-147.18;100.00;67318.16;4893585;29;20056;-84
2022/08/17 13:03:26;;;;;;;43.15;33.95;;;24.70;97.30;;;-147.18;100.00;67318.16;4902209;29;20068;-85
2022/08/17 13:06:00;;;;;;;38.88;30.00;;;24.70;96.10;;;-147.18;100.00;67318.16;4895513;29;20048;-86
2022/08/17 13:08:31;;;;;;;38.50;28.98;;;24.70;97.50;;;-147.18;100.00;67318.16;4885425;29;20139;-90
2022/08/17 13:11:02;;;;;;;46.78;34.38;;;24.70;97.20;;;-147.18;100.00;67318.16;4912348;29;20083;-91
2022/08/17 13:13:34;;;;;;;47.80;37.00;;;24.70;96.40;;;-147.18;100.00;67318.16;4897429;29;20131;-89
2022/08/17 13:16:05;;;;;;;43.90;35.05;;;24.80;97.20;;;-147.18;100.00;67318.16;4890780;29;20626;-89
2022/08/17 13:18:38;;;;;;;;;;;24.80;96.90;;;-147.18;100.00;67318.16;4888267;29;20060;-89
2022/08/17 13:21:10;;;;;;;43.35;33.47;;;24.80;95.80;;;-147.18;100.00;67318.16;4884123;29;19923;-89
2022/08/17 13:23:38;;;;;;;48.38;36.30;;;24.80;95.60;;;-147.18;100.00;67318.16;4909007;29;20075;-89